createdAt,value
2023-04-09T00:01:05.520Z,8.03
2023-04-09T00:03:33.536Z,8.00
2023-04-09T00:06:01.113Z,8.03
2023-04-09T00:08:28.924Z,7.99
2023-04-09T00:10:59.465Z,8.06
2023-04-09T00:16:00.872Z,8.11
2023-04-09T00:18:29.038Z,8.08
2023-04-09T00:20:56.376Z,7.99
2023-04-09T00:23:24.045Z,7.85
2023-04-09T00:25:59.319Z,8.06
2023-04-09T00:28:27.468Z,8.18
2023-04-09T00:30:56.847Z,8.00
2023-04-09T00:33:24.534Z,7.99
2023-04-09T00:35:52.796Z,7.99
2023-04-09T00:38:20.635Z,8.01
2023-04-09T00:40:50.786Z,7.95
2023-04-09T00:43:18.556Z,7.95
2023-04-09T00:45:46.332Z,7.83
2023-04-09T00:48:13.832Z,7.88
2023-04-09T00:50:42.189Z,7.87
2023-04-09T00:53:09.741Z,7.94
2023-04-09T00:55:39.155Z,7.82
2023-04-09T00:58:07.238Z,7.81
2023-04-09T01:00:34.650Z,7.62
2023-04-09T01:03:02.411Z,7.72
2023-04-09T01:05:49.214Z,7.69
2023-04-09T01:08:31.004Z,7.85
2023-04-09T01:11:15.959Z,7.96
2023-04-09T01:14:02.950Z,7.88
2023-04-09T01:16:32.005Z,7.83
2023-04-09T01:19:11.457Z,7.90
2023-04-09T01:21:40.362Z,8.07
2023-04-09T01:24:07.764Z,8.10
2023-04-09T01:26:36.703Z,8.17
2023-04-09T01:29:04.335Z,8.15
2023-04-09T01:31:35.943Z,8.11
2023-04-09T01:34:03.795Z,8.15
2023-04-09T01:36:32.522Z,7.96
2023-04-09T01:39:03.518Z,8.05
2023-04-09T01:41:32.133Z,7.96
2023-04-09T01:44:02.074Z,8.03
2023-04-09T01:46:30.251Z,8.00
2023-04-09T01:48:58.069Z,7.95
2023-04-09T01:51:27.406Z,7.99
2023-04-09T01:53:54.753Z,7.86
2023-04-09T01:56:22.376Z,7.89
2023-04-09T01:58:50.136Z,8.07
2023-04-09T02:01:22.619Z,8.12
2023-04-09T02:03:55.082Z,8.08
2023-04-09T02:06:39.255Z,8.14
2023-04-09T02:09:08.745Z,8.10
2023-04-09T02:11:41.038Z,8.11
2023-04-09T02:14:09.657Z,7.94
2023-04-09T02:16:38.727Z,8.07
2023-04-09T02:19:07.413Z,7.96
2023-04-09T02:21:35.285Z,7.71
2023-04-09T02:24:03.323Z,7.83
2023-04-09T02:26:30.645Z,7.69
2023-04-09T02:28:58.931Z,7.75
2023-04-09T02:31:26.640Z,7.59
2023-04-09T02:33:54.293Z,7.51
2023-04-09T02:36:21.913Z,7.55
2023-04-09T02:38:49.757Z,7.60
2023-04-09T02:41:18.646Z,7.78
2023-04-09T02:43:46.252Z,7.62
2023-04-09T02:46:14.384Z,7.52
2023-04-09T02:48:41.899Z,7.60
2023-04-09T02:51:09.266Z,7.65
2023-04-09T02:53:37.877Z,7.64
2023-04-09T02:56:05.399Z,7.77
2023-04-09T02:58:33.055Z,7.63
2023-04-09T03:01:00.615Z,7.65
2023-04-09T03:03:29.354Z,7.68
2023-04-09T03:05:57.094Z,7.25
2023-04-09T03:08:25.212Z,7.30
2023-04-09T03:10:52.544Z,7.17
2023-04-09T03:13:21.054Z,7.13
2023-04-09T03:15:53.194Z,7.08
2023-04-09T03:18:24.950Z,7.21
2023-04-09T03:20:54.926Z,7.31
2023-04-09T03:23:23.392Z,7.23
2023-04-09T03:25:59.982Z,7.24
2023-04-09T03:28:27.823Z,7.23
2023-04-09T03:30:55.256Z,7.23
2023-04-09T03:33:23.765Z,7.05
2023-04-09T03:35:53.688Z,6.99
2023-04-09T03:38:23.005Z,6.85
2023-04-09T03:40:50.976Z,6.72
2023-04-09T03:43:18.714Z,6.84
2023-04-09T03:45:47.989Z,6.74
2023-04-09T03:48:16.026Z,6.65
2023-04-09T03:50:44.196Z,6.61
2023-04-09T03:53:12.382Z,6.73
2023-04-09T03:55:40.654Z,6.62
2023-04-09T03:58:09.821Z,6.77
2023-04-09T04:00:37.809Z,6.59
2023-04-09T04:03:12.487Z,6.65
2023-04-09T04:05:42.527Z,6.71
2023-04-09T04:08:10.989Z,6.72
2023-04-09T04:10:38.662Z,6.62
2023-04-09T04:13:14.909Z,6.59
2023-04-09T04:15:44.217Z,6.72
2023-04-09T04:18:11.959Z,6.67
2023-04-09T04:20:40.248Z,6.61
2023-04-09T04:23:08.097Z,6.74
2023-04-09T04:25:37.529Z,6.78
2023-04-09T04:28:05.517Z,6.70
2023-04-09T04:30:36.827Z,6.77
2023-04-09T04:33:06.823Z,6.84
2023-04-09T04:35:35.735Z,6.98
2023-04-09T04:38:04.515Z,7.00
2023-04-09T04:40:32.131Z,7.08
2023-04-09T04:43:00.171Z,6.97
2023-04-09T04:45:34.954Z,6.96
2023-04-09T04:48:03.657Z,7.04
2023-04-09T04:50:33.352Z,7.04
2023-04-09T04:53:03.052Z,7.19
2023-04-09T04:55:35.711Z,7.22
2023-04-09T04:58:04.377Z,7.19
2023-04-09T05:00:32.904Z,7.35
2023-04-09T05:03:00.981Z,7.29
2023-04-09T05:05:30.187Z,7.18
2023-04-09T05:08:02.068Z,7.15
2023-04-09T05:10:36.868Z,7.43
2023-04-09T05:13:15.633Z,7.46
2023-04-09T05:15:44.085Z,7.49
2023-04-09T05:18:12.254Z,7.39
2023-04-09T05:20:40.128Z,7.67
2023-04-09T05:23:10.451Z,7.51
2023-04-09T05:25:41.807Z,7.77
2023-04-09T05:28:13.068Z,7.83
2023-04-09T05:30:41.140Z,7.77
2023-04-09T05:33:11.136Z,7.53
2023-04-09T05:35:46.889Z,7.73
2023-04-09T05:38:19.856Z,8.02
2023-04-09T05:40:57.284Z,8.16
2023-04-09T05:43:26.132Z,8.24
2023-04-09T05:46:03.891Z,8.05
2023-04-09T05:48:41.571Z,8.09
2023-04-09T05:51:13.909Z,8.20
2023-04-09T05:53:49.899Z,8.20
2023-04-09T05:56:24.884Z,8.40
2023-04-09T05:58:57.871Z,8.56
2023-04-09T06:01:25.916Z,8.29
2023-04-09T06:03:57.706Z,8.24
2023-04-09T06:06:25.927Z,8.44
2023-04-09T06:09:02.083Z,8.56
2023-04-09T06:11:33.806Z,8.53
2023-04-09T06:14:05.015Z,8.68
2023-04-09T06:16:33.407Z,8.44
2023-04-09T06:19:00.807Z,8.66
2023-04-09T06:21:29.334Z,8.53
2023-04-09T06:23:58.080Z,8.53
2023-04-09T06:26:29.119Z,8.98
2023-04-09T06:29:05.874Z,8.91
2023-04-09T06:31:36.320Z,8.82
2023-04-09T06:34:04.245Z,8.92
2023-04-09T06:36:33.497Z,9.26
2023-04-09T06:39:06.934Z,9.01
2023-04-09T06:41:37.693Z,8.96
2023-04-09T06:44:13.107Z,9.11
2023-04-09T06:46:53.947Z,9.05
2023-04-09T06:49:24.983Z,9.07
2023-04-09T06:51:53.912Z,9.10
2023-04-09T06:54:25.892Z,9.24
2023-04-09T06:57:07.013Z,9.53
2023-04-09T06:59:35.424Z,9.30
2023-04-09T07:02:04.947Z,9.34
2023-04-09T07:04:33.059Z,9.57
2023-04-09T07:07:08.072Z,9.65
2023-04-09T07:09:38.843Z,9.58
2023-04-09T07:12:24.300Z,9.55
2023-04-09T07:14:51.962Z,9.78
2023-04-09T07:17:20.832Z,9.68
2023-04-09T07:19:51.954Z,9.51
2023-04-09T07:22:24.844Z,9.80
2023-04-09T07:25:03.105Z,10.05
2023-04-09T07:27:36.024Z,9.95
2023-04-09T07:32:45.095Z,10.35
2023-04-09T07:35:20.446Z,10.23
2023-04-09T07:37:53.745Z,10.06
2023-04-09T07:40:21.496Z,9.80
2023-04-09T07:42:49.805Z,9.84
2023-04-09T07:45:18.517Z,9.76
2023-04-09T07:47:52.086Z,10.45
2023-04-09T07:50:21.469Z,10.51
2023-04-09T07:52:57.981Z,10.33
2023-04-09T07:55:27.801Z,10.08
2023-04-09T07:58:02.848Z,9.87
2023-04-09T08:00:35.881Z,9.99
2023-04-09T08:03:10.203Z,9.93
2023-04-09T08:05:45.764Z,10.16
2023-04-09T08:08:16.263Z,10.17
2023-04-09T08:10:47.804Z,10.62
2023-04-09T08:13:27.969Z,10.35
2023-04-09T08:15:56.144Z,10.49
2023-04-09T08:18:29.925Z,10.37
2023-04-09T08:21:04.924Z,10.51
2023-04-09T08:23:34.834Z,10.44
2023-04-09T08:26:03.829Z,10.48
2023-04-09T08:28:33.267Z,10.18
2023-04-09T08:31:05.732Z,10.52
2023-04-09T08:33:36.147Z,10.64
2023-04-09T08:36:08.579Z,10.40
2023-04-09T08:38:36.120Z,10.74
2023-04-09T08:41:05.933Z,10.67
2023-04-09T08:43:57.677Z,10.80
2023-04-09T08:46:30.004Z,10.50
2023-04-09T08:48:57.942Z,10.81
2023-04-09T08:51:26.956Z,11.00
2023-04-09T08:53:59.658Z,11.09
2023-04-09T08:56:39.890Z,11.21
2023-04-09T08:59:09.277Z,11.40
2023-04-09T09:01:39.266Z,11.25
2023-04-09T09:04:14.857Z,10.95
2023-04-09T09:06:48.852Z,11.31
2023-04-09T09:09:19.188Z,11.54
2023-04-09T09:11:54.875Z,11.92
2023-04-09T09:14:25.219Z,11.16
2023-04-09T09:19:37.341Z,11.89
2023-04-09T09:22:07.912Z,11.37
2023-04-09T09:24:44.896Z,11.22
2023-04-09T09:27:20.052Z,11.33
2023-04-09T09:29:50.961Z,12.11
2023-04-09T09:35:00.774Z,11.58
2023-04-09T09:37:28.991Z,11.66
2023-04-09T09:42:38.869Z,11.69
2023-04-09T09:45:23.707Z,11.83
2023-04-09T09:47:54.624Z,11.69
2023-04-09T09:50:29.829Z,11.77
2023-04-09T09:55:41.864Z,12.10
2023-04-09T09:58:24.909Z,12.30
2023-04-09T10:00:54.461Z,12.15
2023-04-09T10:03:24.257Z,11.62
2023-04-09T10:05:56.860Z,12.31
2023-04-09T10:08:30.771Z,11.72
2023-04-09T10:10:58.882Z,11.73
2023-04-09T10:13:36.897Z,11.41
2023-04-09T10:16:09.097Z,11.74
2023-04-09T10:18:39.090Z,11.53
2023-04-09T10:21:21.031Z,11.58
2023-04-09T10:23:50.929Z,11.09
2023-04-09T10:26:19.855Z,11.40
2023-04-09T10:28:47.982Z,11.51
2023-04-09T10:31:22.820Z,11.82
2023-04-09T10:33:52.810Z,11.82
2023-04-09T10:36:25.902Z,11.75
2023-04-09T10:38:54.031Z,11.94
2023-04-09T10:41:29.826Z,11.95
2023-04-09T10:44:07.020Z,12.20
2023-04-09T10:46:48.825Z,11.79
2023-04-09T10:49:26.438Z,11.88
2023-04-09T10:52:04.905Z,12.36
2023-04-09T10:54:43.996Z,12.14
2023-04-09T10:57:16.842Z,11.89
2023-04-09T10:59:48.032Z,12.62
2023-04-09T11:05:20.523Z,11.73
2023-04-09T11:08:05.068Z,11.54
2023-04-09T11:10:36.163Z,12.01
2023-04-09T11:13:12.730Z,11.88
2023-04-09T11:15:45.689Z,11.45
2023-04-09T11:18:17.080Z,12.00
2023-04-09T11:20:45.241Z,11.34
2023-04-09T11:23:14.853Z,11.40
2023-04-09T11:33:42.119Z,12.67
2023-04-09T11:36:10.801Z,12.84
2023-04-09T11:38:40.771Z,12.90
2023-04-09T11:41:13.943Z,12.81
2023-04-09T11:43:56.869Z,12.63
2023-04-09T11:46:26.159Z,12.42
2023-04-09T11:48:56.827Z,12.71
2023-04-09T11:51:28.802Z,12.54
2023-04-09T11:53:56.013Z,13.17
2023-04-09T11:56:31.526Z,13.22
2023-04-09T11:59:01.158Z,13.11
2023-04-09T12:01:32.572Z,13.10
2023-04-09T12:04:03.210Z,12.66
2023-04-09T12:06:32.110Z,12.89
2023-04-09T12:09:00.174Z,12.78
2023-04-09T12:11:29.796Z,13.40
2023-04-09T12:14:07.141Z,13.09
2023-04-09T12:16:42.842Z,12.81
2023-04-09T12:19:12.738Z,13.61
2023-04-09T12:21:56.115Z,13.62
2023-04-09T12:24:35.090Z,13.04
2023-04-09T12:27:07.866Z,13.25
2023-04-09T12:29:38.997Z,12.94
2023-04-09T12:32:09.796Z,12.35
2023-04-09T12:34:39.344Z,12.40
2023-04-09T12:37:11.848Z,12.36
2023-04-09T12:39:44.810Z,12.26
2023-04-09T12:42:13.336Z,12.46
2023-04-09T12:44:41.918Z,12.72
2023-04-09T12:47:09.913Z,12.58
2023-04-09T12:49:53.901Z,12.79
2023-04-09T12:52:22.594Z,12.70
2023-04-09T12:54:53.335Z,12.64
2023-04-09T12:57:20.838Z,12.57
2023-04-09T12:59:48.444Z,12.80
2023-04-09T13:04:53.308Z,13.08
2023-04-09T13:07:25.319Z,13.67
2023-04-09T13:10:06.586Z,13.41
2023-04-09T13:12:35.774Z,13.65
2023-04-09T13:15:06.026Z,13.64
2023-04-09T13:17:36.952Z,13.68
2023-04-09T13:20:12.788Z,12.79
2023-04-09T13:22:44.290Z,13.00
2023-04-09T13:25:13.274Z,13.13
2023-04-09T13:27:42.426Z,13.76
2023-04-09T13:30:19.764Z,13.38
2023-04-09T13:35:28.600Z,14.01
2023-04-09T13:37:56.812Z,14.02
2023-04-09T13:40:24.825Z,14.22
2023-04-09T13:42:54.814Z,14.69
2023-04-09T13:45:28.863Z,14.70
2023-04-09T13:48:04.248Z,15.04
2023-04-09T13:50:32.446Z,15.02
2023-04-09T13:53:02.877Z,14.57
2023-04-09T13:55:38.491Z,14.35
2023-04-09T14:01:08.146Z,14.18
2023-04-09T14:03:38.933Z,14.07
2023-04-09T14:06:08.757Z,14.06
2023-04-09T14:08:38.034Z,14.33
2023-04-09T14:11:07.870Z,14.42
2023-04-09T14:13:43.706Z,14.15
2023-04-09T14:16:13.864Z,13.76
2023-04-09T14:18:44.808Z,13.88
2023-04-09T14:21:14.321Z,14.18
2023-04-09T14:23:43.399Z,13.99
2023-04-09T14:26:12.339Z,14.36
2023-04-09T14:28:41.817Z,14.21
2023-04-09T14:31:12.864Z,14.31
2023-04-09T14:33:43.785Z,14.26
2023-04-09T14:36:11.794Z,14.40
2023-04-09T14:38:48.641Z,14.55
2023-04-09T14:43:55.433Z,14.55
2023-04-09T14:46:28.233Z,14.16
2023-04-09T14:48:56.064Z,14.05
2023-04-09T14:54:01.922Z,13.97
2023-04-09T14:56:36.869Z,14.19
2023-04-09T14:59:06.965Z,14.08
2023-04-09T15:01:39.445Z,14.40
2023-04-09T15:04:08.597Z,14.11
2023-04-09T15:06:47.884Z,14.29
2023-04-09T15:09:21.785Z,14.28
2023-04-09T15:11:54.466Z,14.06
2023-04-09T15:14:25.510Z,14.24
2023-04-09T15:16:58.032Z,14.30
2023-04-09T15:19:41.883Z,14.34
2023-04-09T15:22:14.203Z,14.37
2023-04-09T15:24:47.654Z,14.17
2023-04-09T15:27:18.989Z,14.16
2023-04-09T15:29:52.801Z,14.21
2023-04-09T15:35:00.237Z,14.29
2023-04-09T15:37:33.231Z,14.17
2023-04-09T15:40:08.777Z,14.63
2023-04-09T15:42:36.923Z,14.09
2023-04-09T15:45:06.960Z,14.14
2023-04-09T15:47:34.967Z,14.26
2023-04-09T15:50:11.209Z,14.18
2023-04-09T15:52:45.813Z,14.19
2023-04-09T15:55:14.918Z,14.19
2023-04-09T15:57:51.781Z,14.09
2023-04-09T16:00:20.822Z,14.08
2023-04-09T16:02:56.537Z,14.17
2023-04-09T16:05:24.205Z,14.23
2023-04-09T16:07:55.268Z,14.22
2023-04-09T16:10:26.940Z,14.21
2023-04-09T16:18:11.887Z,14.29
2023-04-09T16:20:42.717Z,14.11
2023-04-09T16:23:19.814Z,14.11
2023-04-09T16:25:48.141Z,13.97
2023-04-09T16:28:17.758Z,13.77
2023-04-09T16:30:57.791Z,13.62
2023-04-09T16:33:39.822Z,13.74
2023-04-09T16:36:09.819Z,13.79
2023-04-09T16:38:41.624Z,13.80
2023-04-09T16:41:10.108Z,13.73
2023-04-09T16:43:50.148Z,13.98
2023-04-09T16:46:32.171Z,13.56
2023-04-09T16:49:03.042Z,13.70
2023-04-09T16:51:34.108Z,13.77
2023-04-09T16:54:06.200Z,13.95
2023-04-09T16:56:39.048Z,13.72
2023-04-09T16:59:18.812Z,13.67
2023-04-09T17:04:25.558Z,13.67
2023-04-09T17:06:53.487Z,13.78
2023-04-09T17:12:13.056Z,13.75
2023-04-09T17:14:51.831Z,13.58
2023-04-09T17:17:34.757Z,13.78
2023-04-09T17:20:14.820Z,13.69
2023-04-09T17:22:51.016Z,13.74
2023-04-09T17:28:01.907Z,13.56
2023-04-09T17:30:37.042Z,13.45
2023-04-09T17:35:47.873Z,13.63
2023-04-09T17:38:21.848Z,13.33
2023-04-09T17:40:59.892Z,13.29
2023-04-09T17:43:39.785Z,13.30
2023-04-09T17:46:09.944Z,13.26
2023-04-09T17:48:42.825Z,13.06
2023-04-09T17:51:19.848Z,13.14
2023-04-09T17:59:15.110Z,13.04
2023-04-09T18:01:55.321Z,12.96
2023-04-09T18:04:31.937Z,13.01
2023-04-09T18:07:01.142Z,12.82
2023-04-09T18:12:16.631Z,12.54
2023-04-09T18:17:27.008Z,12.35
2023-04-09T18:19:58.579Z,12.23
2023-04-09T18:22:30.759Z,12.10
2023-04-09T18:27:39.901Z,12.03
2023-04-09T18:30:08.797Z,12.05
2023-04-09T18:32:36.860Z,12.01
2023-04-09T18:35:11.947Z,11.80
2023-04-09T18:37:40.171Z,11.65
2023-04-09T18:42:57.001Z,11.45
2023-04-09T18:45:25.921Z,11.33
2023-04-09T18:48:00.134Z,11.16
2023-04-09T18:50:31.826Z,11.37
2023-04-09T18:53:08.177Z,11.21
2023-04-09T18:55:39.779Z,11.07
2023-04-09T18:58:16.862Z,11.04
2023-04-09T19:00:45.062Z,10.90
2023-04-09T19:03:18.202Z,10.95
2023-04-09T19:08:39.423Z,10.84
2023-04-09T19:11:08.217Z,10.75
2023-04-09T19:13:41.000Z,10.77
2023-04-09T19:16:09.411Z,10.48
2023-04-09T19:18:39.115Z,10.43
2023-04-09T19:21:08.827Z,10.37
2023-04-09T19:23:40.586Z,10.24
2023-04-09T19:26:12.146Z,10.21
2023-04-09T19:28:48.863Z,10.24
2023-04-09T19:31:22.764Z,10.32
2023-04-09T19:33:59.874Z,10.10
2023-04-09T19:36:28.419Z,9.85
2023-04-09T19:38:58.041Z,9.77
2023-04-09T19:41:28.901Z,9.66
2023-04-09T19:44:10.840Z,9.72
2023-04-09T19:46:41.900Z,9.40
2023-04-09T19:49:13.021Z,9.61
2023-04-09T19:51:48.028Z,9.56
2023-04-09T19:54:17.780Z,9.46
2023-04-09T19:56:46.785Z,9.53
2023-04-09T19:59:23.792Z,9.58
2023-04-09T20:01:54.821Z,9.36
2023-04-09T20:04:32.857Z,9.29
2023-04-09T20:07:02.837Z,9.17
2023-04-09T20:09:31.723Z,9.40
2023-04-09T20:12:04.788Z,9.36
2023-04-09T20:14:39.463Z,9.23
2023-04-09T20:17:09.862Z,9.03
2023-04-09T20:19:44.362Z,8.96
2023-04-09T20:22:13.256Z,9.13
2023-04-09T20:24:43.738Z,9.15
2023-04-09T20:29:48.598Z,9.00
2023-04-09T20:32:18.493Z,8.94
2023-04-09T20:37:32.928Z,8.88
2023-04-09T20:40:02.937Z,8.86
2023-04-09T20:42:39.985Z,8.79
2023-04-09T20:45:19.844Z,8.65
2023-04-09T20:47:57.096Z,8.61
2023-04-09T20:50:31.983Z,8.75
2023-04-09T20:53:00.187Z,8.73
2023-04-09T20:55:29.174Z,8.57
2023-04-09T20:57:57.242Z,8.71
2023-04-09T21:00:24.802Z,8.62
2023-04-09T21:02:53.220Z,8.68
2023-04-09T21:05:30.543Z,8.49
2023-04-09T21:07:59.773Z,8.48
2023-04-09T21:10:29.794Z,8.39
2023-04-09T21:13:05.914Z,8.25
2023-04-09T21:15:33.434Z,8.31
2023-04-09T21:18:02.776Z,8.28
2023-04-09T21:20:35.779Z,8.18
2023-04-09T21:23:09.877Z,8.27
2023-04-09T21:25:39.791Z,8.18
2023-04-09T21:28:08.839Z,8.15
2023-04-09T21:30:38.795Z,8.00
2023-04-09T21:33:07.622Z,8.01
2023-04-09T21:35:35.761Z,8.07
2023-04-09T21:38:03.752Z,7.94
2023-04-09T21:40:35.827Z,8.01
2023-04-09T21:43:04.378Z,8.11
2023-04-09T21:45:32.933Z,7.94
2023-04-09T21:48:03.817Z,7.86
2023-04-09T21:50:33.771Z,7.95
2023-04-09T21:53:03.073Z,7.94
2023-04-09T21:55:32.056Z,7.86
2023-04-09T21:58:00.416Z,7.96
2023-04-09T22:00:33.924Z,7.96
2023-04-09T22:03:03.351Z,7.79
2023-04-09T22:05:32.826Z,7.82
2023-04-09T22:08:03.838Z,7.87
2023-04-09T22:10:34.320Z,7.71
2023-04-09T22:13:03.403Z,7.63
2023-04-09T22:15:32.188Z,7.39
2023-04-09T22:18:00.799Z,7.34
2023-04-09T22:20:28.777Z,7.58
2023-04-09T22:22:58.974Z,7.53
2023-04-09T22:25:35.842Z,7.28
2023-04-09T22:28:05.874Z,7.38
2023-04-09T22:30:35.769Z,7.33
2023-04-09T22:33:04.060Z,7.22
2023-04-09T22:35:35.816Z,7.47
2023-04-09T22:38:04.746Z,7.15
2023-04-09T22:40:32.322Z,7.17
2023-04-09T22:42:59.953Z,6.97
2023-04-09T22:45:30.724Z,7.12
2023-04-09T22:47:59.775Z,7.04
2023-04-09T22:50:31.075Z,6.94
2023-04-09T22:53:00.397Z,7.01
2023-04-09T22:55:29.181Z,7.01
2023-04-09T22:57:58.059Z,6.88
2023-04-09T23:00:28.815Z,6.95
2023-04-09T23:02:57.304Z,7.02
2023-04-09T23:05:26.750Z,7.00
2023-04-09T23:07:54.528Z,7.08
2023-04-09T23:10:22.273Z,6.93
2023-04-09T23:12:49.930Z,6.83
2023-04-09T23:15:18.746Z,6.80
2023-04-09T23:17:49.892Z,6.69
2023-04-09T23:20:21.977Z,6.64
2023-04-09T23:22:50.493Z,6.31
2023-04-09T23:25:18.982Z,6.46
2023-04-09T23:27:46.764Z,6.38
2023-04-09T23:30:18.352Z,6.61
2023-04-09T23:32:46.715Z,6.67
2023-04-09T23:35:14.637Z,6.65
2023-04-09T23:37:43.158Z,6.75
2023-04-09T23:40:10.659Z,6.55
2023-04-09T23:42:38.284Z,6.53
2023-04-09T23:45:06.613Z,6.63
2023-04-09T23:47:34.801Z,6.67
2023-04-09T23:50:04.998Z,6.72
2023-04-09T23:52:36.498Z,6.68
2023-04-09T23:55:04.778Z,6.70
2023-04-09T23:57:33.108Z,6.53
